Crosby, TX

5:52 PM CDT on August 29, 2014 (GMT -0500)
Houston / Dunn Helistop | Change Station
CLOSE
Current Station
Airport
Location: Houston / Dunn Helistop,
Elevation: 226 ft
Nearby Weather Stations

Elev 226 ft 29.71 °N, 95.40 °W | Updated 17 minutes ago

Scattered Clouds
Scattered Clouds
82 °F
Feels Like 88 °F
N
10
Wind Variable Wind from East

Today
High -- | Low -- °F
--% Chance of Precip.
Yesterday
High -- | Low -- °F
Precip. -- in
6:55 AM 7:46 PM
Waxing Crescent, 17% visible
Pressure 29.82 in
Visibility 10.0 miles
Clouds Few 2100 ft
Scattered Clouds 4100 ft
Heat Index 88 °F
Dew Point 73 °F
Humidity 74%
Rainfall 0.54 in
Snow Depth Not available.
UV 2 out of 12
Pollen 6.10 out of 12
Ozone Good
PM2.5 Good
Flu Activity Not available.
METAR KMCJ 292235Z AUTO 09009KT 010V020 10SM FEW021 SCT041 28/23 A2982 RMK AO1

More Conditions Fewer Conditions

Pressure 29.82 in
Visibility 10.0 miles
Clouds Few 2100 ft
Scattered Clouds 4100 ft
Heat Index 88 °F
Dew Point 73 °F
Humidity 74%
Rainfall 0.54 in
Snow Depth Not available.
UV 2 out of 12
Pollen 6.10 out of 12
Ozone Good
PM2.5 Good
Flu Activity Not available.
METAR KMCJ 292235Z AUTO 09009KT 010V020 10SM FEW021 SCT041 28/23 A2982 RMK AO1

More Conditions Fewer Conditions

10-Day Weather Forecast

Almanac

Astronomy

Aug. 29, 2014 Rise Set
Actual Time 6:55 AM CDT 7:46 PM CDT
Civil Twilight 6:31 AM CDT 8:10 PM CDT
Nautical Twilight 6:02 AM CDT 8:39 PM CDT
Astronomical Twilight 5:32 AM CDT 9:08 PM CDT
Moon 10:26 AM CDT 10:05 PM CDT
Length of Visible Light 13h 39m
Length of Day
12h 50m
Tomorrow will be 1m 42s shorter.
Waxing Crescent, 17% of the Moon is Illuminated
Today
Waxing Crescent
Sep 2
First Quarter
Sep 8
Full
Sep 15
Last Quarter
Sep 24
New

Today's Extremes

State Highs State Lows

Community

WunderPhotos

Upload Photos

1,748,363 photos uploaded!

Nearby

Air Quality

  Air Quality AQ Index Pollutant
Yesterday Good
OZONE
Yesterday Good
PM2.5
Current Good
OZONE
Current Good
PM2.5
Friday Good
OZONE
Friday Good
PM10
Saturday Good
OZONE
Saturday Good
PM10
Sunday Good
OZONE
Sunday Good
PM10
Monday Good
OZONE
Monday Good
PM10
Tuesday Good
OZONE
Tuesday Good
PM10

Snow Depth

Station Depth Elevation
No new snow has been reported.

Earthquake Activity

City Distance Mag. Time & Date
No recent earthquake activity has been reported nearby.
Minimum magnitude displayed is 2.5.

Coastal Water Temperatures

Place Temperature
Eagle Point, TX 82.9 °F
USCG Freeport, TX 82.9 °F
Galveston Pier TX 84.9 °F
Galveston Bay (North Jetty), TX 84.0 °F
Rollover Pass, TX 82.0 °F

Nearby Weather Stations